SARL/AOL METAR and TAF weather

Enter ICAO airport designator
Station Type Date Time Source
SARL METAR 2020/01/29 12:00 UTC NOAA

SARL 291200Z 32009KT 5000 -TSRA OVC035 FEW045CB 21/20 Q1011


Station Type Date Time Source
SARL Decoded METAR 2020/01/29 12:00 UTC NOAA

Paso De Los Libres Aerodrome, Argentina (SARL) 29-41S 057-09W 70M
Jan 29, 2020 - 07:00 AM EST / 2020.01.29 1200 UTC
Wind: from the NW (320 degrees) at 10 MPH (9 KT):0
Visibility: 3 mile(s):0
Sky conditions: overcast
Weather: light rain with thunder; Cumulonimbus clouds observed
Temperature: 69 F (21 C)
Dew Point: 68 F (20 C)
Relative Humidity: 94%
Pressure (altimeter): 29.85 in. Hg (1011 hPa)
ob: SARL 291200Z 32009KT 5000 -TSRA OVC035 FEW045CB 21/20 Q1011
cycle: 12

Station Type Date Time Source
SARL TAF UTC NOAA

Error!

Example: see airport list